This is the latest recevied weather packets stored in our database for station/object GBTWP-2. If no packets are shown the sender has not sent any weather packets the latest 10 day(s).
| Time | Temp. | Humidity | Pressure | Rain* | Wind** | Luminosity | Snow |
|---|---|---|---|---|---|---|---|
| 1787867520 | 25° C | 60% | 1017.2 hPa | 0 mm | - | 83 W/m² | - |
| 1787867220 | 25° C | 60% | 1017.3 hPa | 0 mm | - | 68 W/m² | - |
| 1787866920 | 25.56° C | 60% | 1017.1 hPa | 0 mm | - | 83 W/m² | - |
| 1787866618 | 25.56° C | 61% | 1017.2 hPa | 0 mm | - | 85 W/m² | - |
| 1787866320 | 25.56° C | 60% | 1017.4 hPa | 0 mm | - | 87 W/m² | - |
| 1787866020 | 25.56° C | 60% | 1017.2 hPa | 0 mm | - | 108 W/m² | - |
| 1787865720 | 25.56° C | 59% | 1017.3 hPa | 0 mm | - | 109 W/m² | - |
| 1787865420 | 25.56° C | 59% | 1017.3 hPa | 0 mm | - | 65 W/m² | - |
| 1787865120 | 25.56° C | 58% | 1017.1 hPa | 0 mm | - | 68 W/m² | - |
| 1787864820 | 25.56° C | 58% | 1017.2 hPa | 0 mm | - | 66 W/m² | - |
| 1787864520 | 26.11° C | 55% | 1017.3 hPa | 0 mm | - | 87 W/m² | - |
| 1787864221 | 26.67° C | 54% | 1017.1 hPa | 0 mm | - | 137 W/m² | - |
| 1787863920 | 26.67° C | 53% | 1017.3 hPa | 0 mm | - | 167 W/m² | - |
| 1787863620 | 26.67° C | 55% | 1017.2 hPa | 0 mm | - | 187 W/m² | - |
| 1787863320 | 26.67° C | 54% | 1017.3 hPa | 0 mm | - | 241 W/m² | - |
| 1787863020 | 27.22° C | 52% | 1017.1 hPa | 0 mm | - | 171 W/m² | - |
| 1787862717 | 27.22° C | 52% | 1017.2 hPa | 0 mm | - | 179 W/m² | - |
| 1787862418 | 26.67° C | 53% | 1017.1 hPa | 0 mm | - | 487 W/m² | - |
| 1787862117 | 26.11° C | 54% | 1017.2 hPa | 0 mm | - | 479 W/m² | - |
| 1787861818 | 26.67° C | 54% | 1017.4 hPa | 0 mm | - | 95 W/m² | - |
| 1787861520 | 26.67° C | 54% | 1017.1 hPa | 0 mm | - | 521 W/m² | - |
| 1787861220 | 26.67° C | 55% | 1017.2 hPa | 0 mm | - | 536 W/m² | - |
| 1787860918 | 27.22° C | 52% | 1017.3 hPa | 0 mm | - | 530 W/m² | - |
| 1787860625 | 26.67° C | 55% | 1017.3 hPa | 0 mm | - | 526 W/m² | - |
| 1787860317 | 27.78° C | 53% | 1017.4 hPa | 0 mm | - | 541 W/m² | - |
* Rain latest hour (hover to see other rain measurements)
** Current wind speed in m/s (hover to see current wind gust speed)